sensor_id;sensor_type;location;lat;lon;timestamp;P1;durP1;ratioP1;P2;durP2;ratioP2
78648;SDS011;67962;47.310;9.642;2023-02-27T00:01:04;4.88;;;3.60;;
78648;SDS011;67962;47.310;9.642;2023-02-27T00:03:31;5.00;;;3.60;;
78648;SDS011;67962;47.310;9.642;2023-02-27T00:05:56;5.35;;;3.42;;
78648;SDS011;67962;47.310;9.642;2023-02-27T00:08:22;5.95;;;3.40;;
78648;SDS011;67962;47.310;9.642;2023-02-27T00:10:48;5.70;;;3.78;;
78648;SDS011;67962;47.310;9.642;2023-02-27T00:13:14;7.68;;;3.92;;
78648;SDS011;67962;47.310;9.642;2023-02-27T00:15:40;6.43;;;3.72;;
78648;SDS011;67962;47.310;9.642;2023-02-27T00:18:08;6.40;;;3.90;;
78648;SDS011;67962;47.310;9.642;2023-02-27T00:20:34;5.43;;;3.63;;
78648;SDS011;67962;47.310;9.642;2023-02-27T00:23:03;6.70;;;3.97;;
78648;SDS011;67962;47.310;9.642;2023-02-27T00:25:32;6.82;;;3.70;;
78648;SDS011;67962;47.310;9.642;2023-02-27T00:27:59;5.53;;;3.63;;
78648;SDS011;67962;47.310;9.642;2023-02-27T00:30:25;6.63;;;3.95;;
78648;SDS011;67962;47.310;9.642;2023-02-27T00:32:51;6.20;;;3.90;;
78648;SDS011;67962;47.310;9.642;2023-02-27T00:35:18;4.93;;;3.50;;
78648;SDS011;67962;47.310;9.642;2023-02-27T00:37:44;6.07;;;3.90;;
78648;SDS011;67962;47.310;9.642;2023-02-27T00:40:10;6.40;;;4.03;;
78648;SDS011;67962;47.310;9.642;2023-02-27T00:42:36;7.32;;;3.80;;
78648;SDS011;67962;47.310;9.642;2023-02-27T00:45:03;7.10;;;3.90;;
78648;SDS011;67962;47.310;9.642;2023-02-27T00:47:29;5.47;;;3.80;;
78648;SDS011;67962;47.310;9.642;2023-02-27T00:49:55;5.20;;;3.35;;
78648;SDS011;67962;47.310;9.642;2023-02-27T00:52:21;5.38;;;3.38;;
78648;SDS011;67962;47.310;9.642;2023-02-27T00:54:47;5.47;;;3.40;;
78648;SDS011;67962;47.310;9.642;2023-02-27T00:57:13;5.63;;;3.70;;
78648;SDS011;67962;47.310;9.642;2023-02-27T00:59:38;7.32;;;3.70;;
78648;SDS011;67962;47.310;9.642;2023-02-27T01:02:04;4.93;;;3.47;;
78648;SDS011;67962;47.310;9.642;2023-02-27T01:04:30;7.45;;;3.47;;
78648;SDS011;67962;47.310;9.642;2023-02-27T01:06:56;4.38;;;3.35;;
78648;SDS011;67962;47.310;9.642;2023-02-27T01:09:21;5.55;;;3.30;;
78648;SDS011;67962;47.310;9.642;2023-02-27T01:11:49;6.18;;;3.60;;
78648;SDS011;67962;47.310;9.642;2023-02-27T01:14:15;4.82;;;3.40;;
78648;SDS011;67962;47.310;9.642;2023-02-27T01:16:41;5.78;;;3.30;;
78648;SDS011;67962;47.310;9.642;2023-02-27T01:19:07;4.70;;;3.28;;
78648;SDS011;67962;47.310;9.642;2023-02-27T01:21:32;5.85;;;3.30;;
78648;SDS011;67962;47.310;9.642;2023-02-27T01:23:58;5.88;;;3.17;;
78648;SDS011;67962;47.310;9.642;2023-02-27T01:26:25;6.20;;;4.05;;
78648;SDS011;67962;47.310;9.642;2023-02-27T01:28:50;6.80;;;4.30;;
78648;SDS011;67962;47.310;9.642;2023-02-27T01:31:16;6.60;;;3.90;;
78648;SDS011;67962;47.310;9.642;2023-02-27T01:33:42;5.18;;;3.40;;
78648;SDS011;67962;47.310;9.642;2023-02-27T01:36:08;6.22;;;3.50;;
78648;SDS011;67962;47.310;9.642;2023-02-27T01:38:34;5.65;;;3.40;;
78648;SDS011;67962;47.310;9.642;2023-02-27T01:41:00;5.93;;;3.80;;
78648;SDS011;67962;47.310;9.642;2023-02-27T01:43:26;6.45;;;3.78;;
78648;SDS011;67962;47.310;9.642;2023-02-27T01:45:52;5.70;;;3.53;;
78648;SDS011;67962;47.310;9.642;2023-02-27T01:48:21;5.72;;;3.75;;
78648;SDS011;67962;47.310;9.642;2023-02-27T01:53:22;5.55;;;3.63;;
78648;SDS011;67962;47.310;9.642;2023-02-27T01:55:50;4.25;;;3.38;;
78648;SDS011;67962;47.310;9.642;2023-02-27T01:58:19;5.30;;;3.28;;
78648;SDS011;67962;47.310;9.642;2023-02-27T02:00:46;6.40;;;3.67;;
78648;SDS011;67962;47.310;9.642;2023-02-27T02:05:52;6.25;;;3.60;;
78648;SDS011;67962;47.310;9.642;2023-02-27T02:08:19;7.13;;;3.70;;
78648;SDS011;67962;47.310;9.642;2023-02-27T02:10:49;4.38;;;3.53;;
78648;SDS011;67962;47.310;9.642;2023-02-27T02:13:17;5.95;;;4.10;;
78648;SDS011;67962;47.310;9.642;2023-02-27T02:15:46;6.28;;;3.97;;
78648;SDS011;67962;47.310;9.642;2023-02-27T02:28:57;6.15;;;4.20;;
78648;SDS011;67962;47.310;9.642;2023-02-27T02:46:00;4.97;;;2.92;;
78648;SDS011;67962;47.310;9.642;2023-02-27T02:57:08;3.42;;;2.50;;
78648;SDS011;67962;47.310;9.642;2023-02-27T02:59:48;3.58;;;2.50;;
78648;SDS011;67962;47.310;9.642;2023-02-27T03:02:32;7.70;;;2.88;;
78648;SDS011;67962;47.310;9.642;2023-02-27T03:05:04;5.53;;;2.90;;
78648;SDS011;67962;47.310;9.642;2023-02-27T03:07:38;4.00;;;2.78;;
78648;SDS011;67962;47.310;9.642;2023-02-27T03:12:41;5.85;;;3.03;;
78648;SDS011;67962;47.310;9.642;2023-02-27T03:17:54;5.07;;;3.28;;
78648;SDS011;67962;47.310;9.642;2023-02-27T03:20:36;5.18;;;3.50;;
78648;SDS011;67962;47.310;9.642;2023-02-27T03:23:11;5.15;;;3.50;;
78648;SDS011;67962;47.310;9.642;2023-02-27T03:25:40;5.65;;;3.35;;
78648;SDS011;67962;47.310;9.642;2023-02-27T03:28:11;6.05;;;3.50;;
78648;SDS011;67962;47.310;9.642;2023-02-27T03:30:58;5.47;;;3.47;;
78648;SDS011;67962;47.310;9.642;2023-02-27T03:39:23;6.38;;;3.65;;
78648;SDS011;67962;47.310;9.642;2023-02-27T03:44:34;5.78;;;3.60;;
78648;SDS011;67962;47.310;9.642;2023-02-27T03:47:17;6.90;;;3.88;;
78648;SDS011;67962;47.310;9.642;2023-02-27T03:49:43;6.47;;;3.75;;
78648;SDS011;67962;47.310;9.642;2023-02-27T03:52:09;5.35;;;3.70;;
78648;SDS011;67962;47.310;9.642;2023-02-27T03:54:35;5.63;;;3.80;;
78648;SDS011;67962;47.310;9.642;2023-02-27T03:57:08;5.63;;;3.65;;
78648;SDS011;67962;47.310;9.642;2023-02-27T03:59:35;5.43;;;4.00;;
78648;SDS011;67962;47.310;9.642;2023-02-27T04:02:02;5.75;;;3.75;;
78648;SDS011;67962;47.310;9.642;2023-02-27T04:04:29;6.90;;;4.10;;
78648;SDS011;67962;47.310;9.642;2023-02-27T04:06:58;5.15;;;3.58;;
78648;SDS011;67962;47.310;9.642;2023-02-27T04:23:38;6.57;;;3.85;;
78648;SDS011;67962;47.310;9.642;2023-02-27T04:26:27;5.15;;;3.40;;
78648;SDS011;67962;47.310;9.642;2023-02-27T04:34:13;6.68;;;3.88;;
78648;SDS011;67962;47.310;9.642;2023-02-27T04:36:49;7.63;;;3.63;;
78648;SDS011;67962;47.310;9.642;2023-02-27T04:41:58;5.88;;;3.60;;
78648;SDS011;67962;47.310;9.642;2023-02-27T04:44:28;5.72;;;3.75;;
78648;SDS011;67962;47.310;9.642;2023-02-27T04:46:57;5.50;;;4.07;;
78648;SDS011;67962;47.310;9.642;2023-02-27T04:49:43;5.68;;;3.90;;
78648;SDS011;67962;47.310;9.642;2023-02-27T04:52:17;5.88;;;4.07;;
78648;SDS011;67962;47.310;9.642;2023-02-27T04:57:22;6.28;;;3.90;;
78648;SDS011;67962;47.310;9.642;2023-02-27T04:59:55;5.70;;;3.58;;
78648;SDS011;67962;47.310;9.642;2023-02-27T05:02:26;7.25;;;3.97;;
78648;SDS011;67962;47.310;9.642;2023-02-27T05:04:57;5.43;;;3.88;;
78648;SDS011;67962;47.310;9.642;2023-02-27T05:07:28;5.38;;;4.18;;
78648;SDS011;67962;47.310;9.642;2023-02-27T05:12:32;5.65;;;3.42;;
78648;SDS011;67962;47.310;9.642;2023-02-27T05:15:14;4.85;;;3.55;;
78648;SDS011;67962;47.310;9.642;2023-02-27T05:17:58;8.40;;;3.70;;
78648;SDS011;67962;47.310;9.642;2023-02-27T05:20:30;7.30;;;3.95;;
78648;SDS011;67962;47.310;9.642;2023-02-27T05:23:35;6.85;;;4.20;;
78648;SDS011;67962;47.310;9.642;2023-02-27T05:26:15;6.63;;;4.13;;
78648;SDS011;67962;47.310;9.642;2023-02-27T05:31:43;9.90;;;3.90;;
78648;SDS011;67962;47.310;9.642;2023-02-27T05:34:38;9.90;;;3.90;;
78648;SDS011;67962;47.310;9.642;2023-02-27T05:37:14;5.82;;;3.95;;
78648;SDS011;67962;47.310;9.642;2023-02-27T05:39:44;8.00;;;3.85;;
78648;SDS011;67962;47.310;9.642;2023-02-27T05:42:17;7.55;;;4.05;;
78648;SDS011;67962;47.310;9.642;2023-02-27T05:44:55;7.70;;;4.20;;
78648;SDS011;67962;47.310;9.642;2023-02-27T05:47:28;7.03;;;4.30;;
78648;SDS011;67962;47.310;9.642;2023-02-27T05:50:19;8.27;;;5.05;;
78648;SDS011;67962;47.310;9.642;2023-02-27T05:52:45;10.50;;;6.03;;
78648;SDS011;67962;47.310;9.642;2023-02-27T05:57:45;7.90;;;4.75;;
78648;SDS011;67962;47.310;9.642;2023-02-27T06:00:20;8.20;;;5.00;;
78648;SDS011;67962;47.310;9.642;2023-02-27T06:02:48;8.32;;;5.00;;
78648;SDS011;67962;47.310;9.642;2023-02-27T06:05:15;13.20;;;5.07;;
78648;SDS011;67962;47.310;9.642;2023-02-27T06:07:42;9.00;;;5.38;;
78648;SDS011;67962;47.310;9.642;2023-02-27T06:10:10;10.73;;;4.85;;
78648;SDS011;67962;47.310;9.642;2023-02-27T06:12:39;10.05;;;5.00;;
78648;SDS011;67962;47.310;9.642;2023-02-27T06:15:05;10.63;;;5.85;;
78648;SDS011;67962;47.310;9.642;2023-02-27T06:17:31;10.63;;;5.70;;
78648;SDS011;67962;47.310;9.642;2023-02-27T06:19:57;10.07;;;6.10;;
78648;SDS011;67962;47.310;9.642;2023-02-27T06:22:22;9.82;;;5.97;;
78648;SDS011;67962;47.310;9.642;2023-02-27T06:24:48;10.73;;;6.32;;
78648;SDS011;67962;47.310;9.642;2023-02-27T06:27:14;9.65;;;5.57;;
78648;SDS011;67962;47.310;9.642;2023-02-27T06:29:39;11.75;;;6.38;;
78648;SDS011;67962;47.310;9.642;2023-02-27T06:32:05;12.07;;;5.70;;
78648;SDS011;67962;47.310;9.642;2023-02-27T06:34:31;14.20;;;6.22;;
78648;SDS011;67962;47.310;9.642;2023-02-27T06:36:56;18.98;;;7.38;;
78648;SDS011;67962;47.310;9.642;2023-02-27T06:39:22;10.88;;;6.63;;
78648;SDS011;67962;47.310;9.642;2023-02-27T06:41:48;13.82;;;6.90;;
78648;SDS011;67962;47.310;9.642;2023-02-27T06:44:13;14.38;;;6.65;;
78648;SDS011;67962;47.310;9.642;2023-02-27T06:46:39;11.23;;;5.82;;
78648;SDS011;67962;47.310;9.642;2023-02-27T06:49:05;9.27;;;5.50;;
78648;SDS011;67962;47.310;9.642;2023-02-27T06:51:31;13.55;;;4.93;;
78648;SDS011;67962;47.310;9.642;2023-02-27T06:53:57;10.52;;;5.30;;
78648;SDS011;67962;47.310;9.642;2023-02-27T06:56:22;15.52;;;8.00;;
78648;SDS011;67962;47.310;9.642;2023-02-27T06:58:48;18.58;;;8.98;;
78648;SDS011;67962;47.310;9.642;2023-02-27T07:01:14;30.95;;;16.48;;
78648;SDS011;67962;47.310;9.642;2023-02-27T07:03:39;28.58;;;15.18;;
78648;SDS011;67962;47.310;9.642;2023-02-27T07:06:05;26.05;;;14.52;;
78648;SDS011;67962;47.310;9.642;2023-02-27T07:08:31;28.77;;;16.77;;
78648;SDS011;67962;47.310;9.642;2023-02-27T07:10:57;24.65;;;14.45;;
78648;SDS011;67962;47.310;9.642;2023-02-27T07:13:23;22.80;;;13.15;;
78648;SDS011;67962;47.310;9.642;2023-02-27T07:15:49;28.20;;;14.95;;
78648;SDS011;67962;47.310;9.642;2023-02-27T07:18:16;28.33;;;16.08;;
78648;SDS011;67962;47.310;9.642;2023-02-27T07:20:42;25.02;;;16.25;;
78648;SDS011;67962;47.310;9.642;2023-02-27T07:23:07;15.10;;;8.82;;
78648;SDS011;67962;47.310;9.642;2023-02-27T07:25:34;9.30;;;5.55;;
78648;SDS011;67962;47.310;9.642;2023-02-27T07:28:00;6.13;;;3.97;;
78648;SDS011;67962;47.310;9.642;2023-02-27T07:30:26;8.63;;;4.13;;
78648;SDS011;67962;47.310;9.642;2023-02-27T07:32:54;8.50;;;4.70;;
78648;SDS011;67962;47.310;9.642;2023-02-27T07:35:20;8.43;;;4.75;;
78648;SDS011;67962;47.310;9.642;2023-02-27T07:37:46;7.03;;;4.30;;
78648;SDS011;67962;47.310;9.642;2023-02-27T07:40:12;7.20;;;4.65;;
78648;SDS011;67962;47.310;9.642;2023-02-27T07:42:38;10.38;;;4.50;;
78648;SDS011;67962;47.310;9.642;2023-02-27T07:45:04;6.07;;;3.92;;
78648;SDS011;67962;47.310;9.642;2023-02-27T07:47:30;6.28;;;3.67;;
78648;SDS011;67962;47.310;9.642;2023-02-27T07:49:56;7.57;;;4.28;;
78648;SDS011;67962;47.310;9.642;2023-02-27T07:52:22;9.65;;;4.30;;
78648;SDS011;67962;47.310;9.642;2023-02-27T07:54:49;6.20;;;4.05;;
78648;SDS011;67962;47.310;9.642;2023-02-27T07:57:14;5.63;;;3.60;;
78648;SDS011;67962;47.310;9.642;2023-02-27T07:59:40;8.70;;;4.45;;
78648;SDS011;67962;47.310;9.642;2023-02-27T08:02:06;7.65;;;4.30;;
78648;SDS011;67962;47.310;9.642;2023-02-27T08:04:31;8.85;;;5.00;;
78648;SDS011;67962;47.310;9.642;2023-02-27T08:06:57;7.68;;;4.63;;
78648;SDS011;67962;47.310;9.642;2023-02-27T08:09:23;6.15;;;4.07;;
78648;SDS011;67962;47.310;9.642;2023-02-27T08:11:48;10.10;;;4.35;;
78648;SDS011;67962;47.310;9.642;2023-02-27T08:14:14;7.40;;;4.05;;
78648;SDS011;67962;47.310;9.642;2023-02-27T08:16:40;6.82;;;4.40;;
78648;SDS011;67962;47.310;9.642;2023-02-27T08:19:05;4.68;;;3.40;;
78648;SDS011;67962;47.310;9.642;2023-02-27T08:21:32;5.88;;;3.63;;
78648;SDS011;67962;47.310;9.642;2023-02-27T08:23:57;6.65;;;3.92;;
78648;SDS011;67962;47.310;9.642;2023-02-27T08:26:23;5.72;;;3.70;;
78648;SDS011;67962;47.310;9.642;2023-02-27T08:28:49;6.20;;;4.03;;
78648;SDS011;67962;47.310;9.642;2023-02-27T08:31:15;5.07;;;3.67;;
78648;SDS011;67962;47.310;9.642;2023-02-27T08:33:41;6.80;;;4.40;;
78648;SDS011;67962;47.310;9.642;2023-02-27T08:36:06;6.47;;;4.30;;
78648;SDS011;67962;47.310;9.642;2023-02-27T08:38:33;5.85;;;4.13;;
78648;SDS011;67962;47.310;9.642;2023-02-27T08:40:59;5.25;;;3.90;;
78648;SDS011;67962;47.310;9.642;2023-02-27T08:43:25;6.38;;;3.63;;
78648;SDS011;67962;47.310;9.642;2023-02-27T08:45:51;6.78;;;3.85;;
78648;SDS011;67962;47.310;9.642;2023-02-27T08:48:16;5.13;;;3.70;;
78648;SDS011;67962;47.310;9.642;2023-02-27T08:50:42;5.35;;;3.60;;
78648;SDS011;67962;47.310;9.642;2023-02-27T08:53:09;5.65;;;3.53;;
78648;SDS011;67962;47.310;9.642;2023-02-27T08:55:35;5.68;;;4.25;;
78648;SDS011;67962;47.310;9.642;2023-02-27T08:58:01;7.72;;;4.75;;
78648;SDS011;67962;47.310;9.642;2023-02-27T09:00:27;9.07;;;4.82;;
78648;SDS011;67962;47.310;9.642;2023-02-27T09:02:54;8.38;;;5.22;;
78648;SDS011;67962;47.310;9.642;2023-02-27T09:05:20;7.22;;;5.55;;
78648;SDS011;67962;47.310;9.642;2023-02-27T09:07:47;8.55;;;5.20;;
78648;SDS011;67962;47.310;9.642;2023-02-27T09:10:13;8.55;;;5.13;;
78648;SDS011;67962;47.310;9.642;2023-02-27T09:12:39;6.57;;;4.53;;
78648;SDS011;67962;47.310;9.642;2023-02-27T09:15:05;5.65;;;4.03;;
78648;SDS011;67962;47.310;9.642;2023-02-27T09:17:32;6.30;;;4.05;;
78648;SDS011;67962;47.310;9.642;2023-02-27T09:19:57;5.78;;;4.30;;
78648;SDS011;67962;47.310;9.642;2023-02-27T09:22:23;6.32;;;3.90;;
78648;SDS011;67962;47.310;9.642;2023-02-27T09:24:49;6.10;;;3.75;;
78648;SDS011;67962;47.310;9.642;2023-02-27T09:27:15;5.78;;;3.42;;
78648;SDS011;67962;47.310;9.642;2023-02-27T09:29:40;4.50;;;3.53;;
78648;SDS011;67962;47.310;9.642;2023-02-27T09:32:06;6.13;;;3.40;;
78648;SDS011;67962;47.310;9.642;2023-02-27T09:34:32;4.38;;;3.25;;
78648;SDS011;67962;47.310;9.642;2023-02-27T09:36:59;6.32;;;3.58;;
78648;SDS011;67962;47.310;9.642;2023-02-27T09:39:26;5.78;;;4.18;;
78648;SDS011;67962;47.310;9.642;2023-02-27T09:41:58;8.88;;;5.00;;
78648;SDS011;67962;47.310;9.642;2023-02-27T09:44:49;6.50;;;3.38;;
78648;SDS011;67962;47.310;9.642;2023-02-27T09:47:25;4.82;;;3.15;;
78648;SDS011;67962;47.310;9.642;2023-02-27T09:50:00;5.68;;;3.70;;
78648;SDS011;67962;47.310;9.642;2023-02-27T09:52:29;5.10;;;3.53;;
78648;SDS011;67962;47.310;9.642;2023-02-27T09:54:56;5.75;;;3.75;;
78648;SDS011;67962;47.310;9.642;2023-02-27T09:57:25;5.72;;;3.63;;
78648;SDS011;67962;47.310;9.642;2023-02-27T10:00:06;5.72;;;3.72;;
78648;SDS011;67962;47.310;9.642;2023-02-27T10:05:48;4.10;;;3.47;;
78648;SDS011;67962;47.310;9.642;2023-02-27T10:08:47;6.80;;;3.47;;
78648;SDS011;67962;47.310;9.642;2023-02-27T10:11:53;5.63;;;3.30;;
78648;SDS011;67962;47.310;9.642;2023-02-27T10:14:44;4.90;;;3.45;;
78648;SDS011;67962;47.310;9.642;2023-02-27T10:17:21;6.72;;;3.70;;
78648;SDS011;67962;47.310;9.642;2023-02-27T10:19:50;4.45;;;3.40;;
78648;SDS011;67962;47.310;9.642;2023-02-27T10:22:19;5.95;;;3.40;;
78648;SDS011;67962;47.310;9.642;2023-02-27T10:24:51;5.93;;;3.47;;
78648;SDS011;67962;47.310;9.642;2023-02-27T10:27:21;3.33;;;2.90;;
78648;SDS011;67962;47.310;9.642;2023-02-27T10:29:47;4.22;;;3.20;;
78648;SDS011;67962;47.310;9.642;2023-02-27T10:32:31;4.50;;;3.30;;
78648;SDS011;67962;47.310;9.642;2023-02-27T10:35:06;4.55;;;3.13;;
78648;SDS011;67962;47.310;9.642;2023-02-27T10:37:37;3.60;;;2.80;;
78648;SDS011;67962;47.310;9.642;2023-02-27T10:40:12;4.18;;;2.78;;
78648;SDS011;67962;47.310;9.642;2023-02-27T10:42:39;5.10;;;3.20;;
78648;SDS011;67962;47.310;9.642;2023-02-27T10:45:05;4.75;;;2.97;;
78648;SDS011;67962;47.310;9.642;2023-02-27T10:47:38;6.25;;;3.10;;
78648;SDS011;67962;47.310;9.642;2023-02-27T10:50:08;4.13;;;2.88;;
78648;SDS011;67962;47.310;9.642;2023-02-27T10:52:53;5.78;;;3.08;;
78648;SDS011;67962;47.310;9.642;2023-02-27T10:55:27;5.40;;;3.00;;
78648;SDS011;67962;47.310;9.642;2023-02-27T10:58:02;4.05;;;2.95;;
78648;SDS011;67962;47.310;9.642;2023-02-27T11:03:20;5.43;;;3.15;;
78648;SDS011;67962;47.310;9.642;2023-02-27T11:05:55;4.28;;;3.03;;
78648;SDS011;67962;47.310;9.642;2023-02-27T11:08:29;5.72;;;3.13;;
78648;SDS011;67962;47.310;9.642;2023-02-27T11:10:58;6.85;;;3.10;;
78648;SDS011;67962;47.310;9.642;2023-02-27T11:13:35;4.88;;;3.22;;
78648;SDS011;67962;47.310;9.642;2023-02-27T11:16:07;4.10;;;3.20;;
78648;SDS011;67962;47.310;9.642;2023-02-27T11:18:40;3.90;;;2.95;;
78648;SDS011;67962;47.310;9.642;2023-02-27T11:21:12;5.40;;;3.40;;
78648;SDS011;67962;47.310;9.642;2023-02-27T11:23:58;4.65;;;3.45;;
78648;SDS011;67962;47.310;9.642;2023-02-27T11:29:12;5.32;;;3.53;;
78648;SDS011;67962;47.310;9.642;2023-02-27T11:31:46;6.50;;;3.75;;
78648;SDS011;67962;47.310;9.642;2023-02-27T11:34:17;6.15;;;3.50;;
78648;SDS011;67962;47.310;9.642;2023-02-27T11:36:57;3.85;;;3.05;;
78648;SDS011;67962;47.310;9.642;2023-02-27T11:39:47;4.53;;;3.40;;
78648;SDS011;67962;47.310;9.642;2023-02-27T11:42:17;5.50;;;3.70;;
78648;SDS011;67962;47.310;9.642;2023-02-27T11:44:57;5.18;;;3.38;;
78648;SDS011;67962;47.310;9.642;2023-02-27T11:47:29;6.20;;;3.35;;
78648;SDS011;67962;47.310;9.642;2023-02-27T11:55:46;6.10;;;3.15;;
78648;SDS011;67962;47.310;9.642;2023-02-27T11:58:14;5.72;;;3.60;;
78648;SDS011;67962;47.310;9.642;2023-02-27T12:05:56;4.72;;;3.20;;
78648;SDS011;67962;47.310;9.642;2023-02-27T12:08:36;6.22;;;3.40;;
78648;SDS011;67962;47.310;9.642;2023-02-27T12:11:28;4.25;;;3.33;;
78648;SDS011;67962;47.310;9.642;2023-02-27T12:19:43;3.72;;;3.03;;
78648;SDS011;67962;47.310;9.642;2023-02-27T12:22:33;3.53;;;2.80;;
78648;SDS011;67962;47.310;9.642;2023-02-27T12:25:45;4.25;;;3.25;;
78648;SDS011;67962;47.310;9.642;2023-02-27T12:33:49;3.78;;;3.08;;
78648;SDS011;67962;47.310;9.642;2023-02-27T12:36:36;4.40;;;3.33;;
78648;SDS011;67962;47.310;9.642;2023-02-27T12:39:02;4.28;;;2.92;;
78648;SDS011;67962;47.310;9.642;2023-02-27T12:55:03;6.50;;;3.30;;
78648;SDS011;67962;47.310;9.642;2023-02-27T13:00:11;3.92;;;3.20;;
78648;SDS011;67962;47.310;9.642;2023-02-27T13:05:27;4.93;;;3.22;;
78648;SDS011;67962;47.310;9.642;2023-02-27T13:11:18;5.03;;;2.95;;
78648;SDS011;67962;47.310;9.642;2023-02-27T13:14:07;5.22;;;3.30;;
78648;SDS011;67962;47.310;9.642;2023-02-27T13:16:42;4.68;;;2.90;;
78648;SDS011;67962;47.310;9.642;2023-02-27T13:21:47;4.07;;;2.80;;
78648;SDS011;67962;47.310;9.642;2023-02-27T13:24:48;4.13;;;3.17;;
78648;SDS011;67962;47.310;9.642;2023-02-27T13:27:18;4.85;;;2.95;;
78648;SDS011;67962;47.310;9.642;2023-02-27T13:35:00;5.55;;;2.85;;
78648;SDS011;67962;47.310;9.642;2023-02-27T13:40:31;3.60;;;2.67;;
78648;SDS011;67962;47.310;9.642;2023-02-27T13:51:07;3.90;;;3.05;;
78648;SDS011;67962;47.310;9.642;2023-02-27T13:53:35;4.32;;;3.17;;
78648;SDS011;67962;47.310;9.642;2023-02-27T13:56:20;5.40;;;2.95;;
78648;SDS011;67962;47.310;9.642;2023-02-27T13:58:48;3.63;;;2.75;;
78648;SDS011;67962;47.310;9.642;2023-02-27T14:01:21;6.30;;;3.50;;
78648;SDS011;67962;47.310;9.642;2023-02-27T14:03:52;4.32;;;3.00;;
78648;SDS011;67962;47.310;9.642;2023-02-27T14:06:21;5.40;;;3.70;;
78648;SDS011;67962;47.310;9.642;2023-02-27T14:08:49;6.22;;;3.00;;
78648;SDS011;67962;47.310;9.642;2023-02-27T14:13:59;4.93;;;3.17;;
78648;SDS011;67962;47.310;9.642;2023-02-27T14:16:49;4.88;;;3.30;;
78648;SDS011;67962;47.310;9.642;2023-02-27T14:27:02;4.53;;;3.28;;
78648;SDS011;67962;47.310;9.642;2023-02-27T14:29:30;6.35;;;3.58;;
78648;SDS011;67962;47.310;9.642;2023-02-27T14:31:59;4.60;;;2.92;;
78648;SDS011;67962;47.310;9.642;2023-02-27T14:34:33;4.00;;;3.28;;
78648;SDS011;67962;47.310;9.642;2023-02-27T14:37:03;3.75;;;3.10;;
78648;SDS011;67962;47.310;9.642;2023-02-27T14:39:34;4.53;;;3.42;;
78648;SDS011;67962;47.310;9.642;2023-02-27T14:42:19;5.85;;;3.28;;
78648;SDS011;67962;47.310;9.642;2023-02-27T14:44:54;5.07;;;3.58;;
78648;SDS011;67962;47.310;9.642;2023-02-27T14:49:57;4.20;;;3.00;;
78648;SDS011;67962;47.310;9.642;2023-02-27T14:52:28;5.13;;;3.47;;
78648;SDS011;67962;47.310;9.642;2023-02-27T14:55:07;4.43;;;3.50;;
78648;SDS011;67962;47.310;9.642;2023-02-27T14:57:36;3.50;;;2.92;;
78648;SDS011;67962;47.310;9.642;2023-02-27T15:00:04;4.25;;;3.15;;
78648;SDS011;67962;47.310;9.642;2023-02-27T15:02:32;5.95;;;3.53;;
78648;SDS011;67962;47.310;9.642;2023-02-27T15:07:24;4.35;;;2.95;;
78648;SDS011;67962;47.310;9.642;2023-02-27T15:09:58;4.40;;;3.10;;
78648;SDS011;67962;47.310;9.642;2023-02-27T15:12:25;5.13;;;3.25;;
78648;SDS011;67962;47.310;9.642;2023-02-27T15:14:58;3.83;;;3.15;;
78648;SDS011;67962;47.310;9.642;2023-02-27T15:17:27;4.18;;;3.25;;
78648;SDS011;67962;47.310;9.642;2023-02-27T15:22:53;4.72;;;3.30;;
78648;SDS011;67962;47.310;9.642;2023-02-27T15:27:56;4.78;;;3.50;;
78648;SDS011;67962;47.310;9.642;2023-02-27T15:30:27;7.80;;;3.72;;
78648;SDS011;67962;47.310;9.642;2023-02-27T15:32:53;5.00;;;3.83;;
78648;SDS011;67962;47.310;9.642;2023-02-27T15:35:21;4.82;;;3.67;;
78648;SDS011;67962;47.310;9.642;2023-02-27T15:37:51;4.65;;;3.20;;
78648;SDS011;67962;47.310;9.642;2023-02-27T15:40:20;5.50;;;3.38;;
78648;SDS011;67962;47.310;9.642;2023-02-27T15:42:48;6.65;;;4.07;;
78648;SDS011;67962;47.310;9.642;2023-02-27T15:45:17;7.97;;;4.47;;
78648;SDS011;67962;47.310;9.642;2023-02-27T15:47:45;7.65;;;4.25;;
78648;SDS011;67962;47.310;9.642;2023-02-27T15:52:49;9.82;;;4.10;;
78648;SDS011;67962;47.310;9.642;2023-02-27T15:55:32;6.53;;;3.85;;
78648;SDS011;67962;47.310;9.642;2023-02-27T15:57:59;7.10;;;3.80;;
78648;SDS011;67962;47.310;9.642;2023-02-27T16:00:26;5.30;;;4.00;;
78648;SDS011;67962;47.310;9.642;2023-02-27T16:02:54;10.52;;;4.25;;
78648;SDS011;67962;47.310;9.642;2023-02-27T16:07:59;7.07;;;3.92;;
78648;SDS011;67962;47.310;9.642;2023-02-27T16:10:27;7.80;;;4.05;;
78648;SDS011;67962;47.310;9.642;2023-02-27T16:12:59;5.38;;;3.85;;
78648;SDS011;67962;47.310;9.642;2023-02-27T16:16:03;5.95;;;3.40;;
78648;SDS011;67962;47.310;9.642;2023-02-27T16:18:59;4.93;;;3.50;;
78648;SDS011;67962;47.310;9.642;2023-02-27T16:24:31;9.57;;;3.88;;
78648;SDS011;67962;47.310;9.642;2023-02-27T16:26:57;6.13;;;3.72;;
78648;SDS011;67962;47.310;9.642;2023-02-27T16:32:00;5.88;;;3.08;;
78648;SDS011;67962;47.310;9.642;2023-02-27T16:37:04;9.93;;;3.65;;
78648;SDS011;67962;47.310;9.642;2023-02-27T16:39:31;5.03;;;3.55;;
78648;SDS011;67962;47.310;9.642;2023-02-27T16:41:58;6.05;;;3.88;;
78648;SDS011;67962;47.310;9.642;2023-02-27T16:44:25;6.28;;;3.50;;
78648;SDS011;67962;47.310;9.642;2023-02-27T16:46:53;6.75;;;3.70;;
78648;SDS011;67962;47.310;9.642;2023-02-27T16:49:24;5.07;;;3.53;;
78648;SDS011;67962;47.310;9.642;2023-02-27T16:51:51;4.28;;;3.15;;
78648;SDS011;67962;47.310;9.642;2023-02-27T16:54:17;5.13;;;3.40;;
78648;SDS011;67962;47.310;9.642;2023-02-27T16:56:44;6.78;;;3.38;;
78648;SDS011;67962;47.310;9.642;2023-02-27T17:02:01;6.10;;;3.53;;
78648;SDS011;67962;47.310;9.642;2023-02-27T17:04:29;5.75;;;3.63;;
78648;SDS011;67962;47.310;9.642;2023-02-27T17:06:56;6.45;;;3.60;;
78648;SDS011;67962;47.310;9.642;2023-02-27T17:09:23;4.82;;;3.47;;
78648;SDS011;67962;47.310;9.642;2023-02-27T17:11:53;4.90;;;3.35;;
78648;SDS011;67962;47.310;9.642;2023-02-27T17:14:21;6.43;;;3.70;;
78648;SDS011;67962;47.310;9.642;2023-02-27T17:16:47;6.88;;;3.92;;
78648;SDS011;67962;47.310;9.642;2023-02-27T17:19:13;6.20;;;3.90;;
78648;SDS011;67962;47.310;9.642;2023-02-27T17:21:39;5.25;;;3.72;;
78648;SDS011;67962;47.310;9.642;2023-02-27T17:24:05;5.40;;;4.03;;
78648;SDS011;67962;47.310;9.642;2023-02-27T17:26:32;6.70;;;4.18;;
78648;SDS011;67962;47.310;9.642;2023-02-27T17:28:59;6.45;;;3.90;;
78648;SDS011;67962;47.310;9.642;2023-02-27T17:31:26;5.65;;;4.10;;
78648;SDS011;67962;47.310;9.642;2023-02-27T17:33:54;5.47;;;4.25;;
78648;SDS011;67962;47.310;9.642;2023-02-27T17:36:20;6.05;;;4.10;;
78648;SDS011;67962;47.310;9.642;2023-02-27T17:38:52;7.10;;;4.30;;
78648;SDS011;67962;47.310;9.642;2023-02-27T17:41:19;7.18;;;4.47;;
78648;SDS011;67962;47.310;9.642;2023-02-27T17:43:50;8.48;;;5.15;;
78648;SDS011;67962;47.310;9.642;2023-02-27T17:46:19;8.23;;;4.93;;
78648;SDS011;67962;47.310;9.642;2023-02-27T17:48:46;8.50;;;4.80;;
78648;SDS011;67962;47.310;9.642;2023-02-27T17:51:13;10.38;;;5.40;;
78648;SDS011;67962;47.310;9.642;2023-02-27T17:53:40;11.18;;;5.50;;
78648;SDS011;67962;47.310;9.642;2023-02-27T17:56:06;10.63;;;4.63;;
78648;SDS011;67962;47.310;9.642;2023-02-27T17:58:33;10.90;;;5.57;;
78648;SDS011;67962;47.310;9.642;2023-02-27T18:01:05;12.45;;;5.95;;
78648;SDS011;67962;47.310;9.642;2023-02-27T18:03:32;8.77;;;4.57;;
78648;SDS011;67962;47.310;9.642;2023-02-27T18:05:59;9.10;;;5.10;;
78648;SDS011;67962;47.310;9.642;2023-02-27T18:08:25;8.20;;;4.78;;
78648;SDS011;67962;47.310;9.642;2023-02-27T18:10:54;9.13;;;5.15;;
78648;SDS011;67962;47.310;9.642;2023-02-27T18:13:20;6.40;;;4.15;;
78648;SDS011;67962;47.310;9.642;2023-02-27T18:15:48;7.13;;;4.30;;
78648;SDS011;67962;47.310;9.642;2023-02-27T18:18:14;7.18;;;4.57;;